Time;durP1;ratioP1;P1;durP2;ratioP2;P2;SDS_P1;SDS_P2;PMS_P1;PMS_P2;Temp;Humidity;BMP_temperature;BMP_pressure;BME280_temperature;BME280_humidity;BME280_pressure;Samples;Min_cycle;Max_cycle;Signal;HPM_P1;HPM_P2
2022/06/12 00:01:51;;;;;;;11.40;2.90;;;;;;;13.92;73.23;102235.50;5046637;28;20083;-56
2022/06/12 00:04:17;;;;;;;9.57;2.90;;;;;;;13.86;73.30;102230.78;5042439;28;20600;-56
2022/06/12 00:06:43;;;;;;;5.18;2.75;;;;;;;13.85;73.12;102225.59;5037411;28;20100;-57
2022/06/12 00:09:08;;;;;;;14.63;4.07;;;;;;;13.95;73.31;102226.34;5043199;28;20067;-57
2022/06/12 00:11:34;;;;;;;8.73;2.95;;;;;;;13.85;73.34;102233.59;5040452;28;20732;-56
2022/06/12 00:14:03;;;;;;;8.65;2.88;;;;;;;13.92;73.77;102240.84;5039086;28;20522;-56
2022/06/12 00:16:30;;;;;;;9.43;2.92;;;;;;;13.99;73.29;102234.88;5038165;28;20048;-59
2022/06/12 00:18:56;;;;;;;8.52;3.30;;;;;;;13.97;72.58;102232.34;5037107;28;20033;-55
2022/06/12 00:21:22;;;;;;;9.98;3.35;;;;;;;13.94;72.85;102233.50;5039599;28;20028;-55
2022/06/12 00:23:52;;;;;;;9.38;3.10;;;;;;;13.93;72.71;102226.50;5036830;28;20025;-56
2022/06/12 00:26:40;;;;;;;11.10;3.45;;;;;;;13.90;72.29;102226.81;5040549;28;20096;-56
2022/06/12 00:29:20;;;;;;;12.00;3.17;;;;;;;13.89;72.52;102225.16;5043549;28;20037;-55
2022/06/12 00:31:47;;;;;;;;;;;;;;;13.93;72.29;102229.16;5038031;28;20025;-56
2022/06/12 00:34:15;;;;;;;8.27;3.20;;;;;;;13.86;72.29;102225.44;5035855;28;19949;-56
2022/06/12 00:36:40;;;;;;;12.65;3.60;;;;;;;13.87;72.33;102229.78;5037746;28;20068;-56
2022/06/12 00:39:08;;;;;;;10.95;3.35;;;;;;;13.86;72.33;102228.09;5041990;28;20502;-56
2022/06/12 00:41:34;;;;;;;11.05;3.03;;;;;;;13.83;72.25;102220.41;5035156;28;20029;-56
2022/06/12 00:44:00;;;;;;;12.43;3.30;;;;;;;13.82;72.73;102223.25;5036389;28;20033;-56
2022/06/12 00:46:46;;;;;;;11.20;2.97;;;;;;;13.79;72.73;102224.41;5038055;28;20025;-57
2022/06/12 00:49:14;;;;;;;11.02;3.28;;;;;;;13.72;72.59;102226.03;5035333;28;20040;-56
2022/06/12 00:51:41;;;;;;;11.93;3.10;;;;;;;13.72;72.58;102231.38;5037461;28;20061;-57
2022/06/12 00:54:08;;;;;;;10.40;3.15;;;;;;;13.67;72.58;102227.50;5044315;28;20032;-57
2022/06/12 00:56:38;;;;;;;10.48;3.13;;;;;;;13.63;72.92;102229.66;5040489;28;20540;-57
2022/06/12 00:59:11;;;;;;;12.18;3.05;;;;;;;13.64;72.74;102226.81;5041062;28;20079;-56
2022/06/12 01:01:40;;;;;;;10.77;3.60;;;;;;;13.67;72.79;102220.31;5044557;28;20033;-57
2022/06/12 01:06:54;;;;;;;12.45;3.30;;;;;;;13.63;73.13;102230.50;5047025;28;20036;-57
2022/06/12 01:09:25;;;;;;;10.57;3.53;;;;;;;13.64;73.44;102228.66;5044233;28;20052;-57
2022/06/12 01:11:53;;;;;;;13.43;3.05;;;;;;;13.59;73.31;102222.94;5024308;28;20052;-56
2022/06/12 01:14:25;;;;;;;11.05;2.80;;;;;;;13.50;73.27;102226.53;5042893;28;20029;-57
2022/06/12 01:16:53;;;;;;;10.85;2.80;;;;;;;13.54;73.25;102225.22;5039503;28;20025;-57
2022/06/12 01:19:18;;;;;;;13.45;3.17;;;;;;;13.54;73.59;102222.56;5044162;28;20108;-57
2022/06/12 01:22:16;;;;;;;13.68;3.30;;;;;;;13.60;73.80;102220.13;5042835;28;20108;-56
2022/06/12 01:25:03;;;;;;;9.45;3.15;;;;;;;13.63;73.79;102222.47;5038776;28;20013;-56
2022/06/12 01:27:47;;;;;;;11.55;3.45;;;;;;;13.62;73.45;102223.47;5040775;28;20026;-57
2022/06/12 01:30:25;;;;;;;10.02;3.50;;;;;;;13.68;73.84;102227.34;5045019;28;20479;-58
2022/06/12 01:32:57;;;;;;;7.13;2.83;;;;;;;13.61;73.54;102221.81;5046823;28;20025;-56
2022/06/12 01:35:25;;;;;;;6.95;2.70;;;;;;;13.60;74.22;102214.78;5048637;28;20021;-55
2022/06/12 01:38:01;;;;;;;9.85;3.22;;;;;;;13.59;74.08;102220.28;5043559;28;20040;-56
2022/06/12 01:40:45;;;;;;;9.13;3.28;;;;;;;13.53;74.40;102215.53;5035481;28;20028;-58
2022/06/12 01:43:36;;;;;;;8.38;3.00;;;;;;;13.49;74.27;102217.69;5046479;28;20636;-56
2022/06/12 01:46:08;;;;;;;9.90;3.45;;;;;;;13.40;74.31;102220.47;5042690;28;20779;-56
2022/06/12 01:48:39;;;;;;;7.38;3.13;;;;;;;13.41;74.19;102216.81;5046925;28;20060;-57
2022/06/12 01:51:08;;;;;;;13.90;2.95;;;;;;;13.20;74.05;102212.63;5037833;28;20064;-55
2022/06/12 01:53:59;;;;;;;7.97;3.20;;;;;;;13.23;74.62;102219.50;5043342;28;20029;-57
2022/06/12 01:56:41;;;;;;;10.73;3.47;;;;;;;13.10;74.71;102216.34;5046768;28;20017;-56
2022/06/12 01:59:24;;;;;;;12.95;3.45;;;;;;;13.08;74.54;102224.50;5048590;28;20025;-56
2022/06/12 02:02:25;;;;;;;14.80;3.75;;;;;;;12.96;74.77;102215.88;5046215;28;20021;-57
2022/06/12 02:05:05;;;;;;;10.02;3.60;;;;;;;12.87;75.10;102216.81;5025434;28;20112;-55
2022/06/12 02:07:38;;;;;;;10.75;3.63;;;;;;;12.74;74.96;102207.53;5040065;28;20075;-56
2022/06/12 02:10:15;;;;;;;9.23;3.30;;;;;;;12.76;75.38;102206.38;5043689;28;20021;-59
2022/06/12 02:15:50;;;;;;;10.93;3.88;;;;;;;12.70;75.63;102215.78;5044032;28;20130;-57
2022/06/12 02:18:23;;;;;;;11.25;3.50;;;;;;;12.75;76.01;102220.69;5037244;28;20024;-56
2022/06/12 02:20:56;;;;;;;8.82;3.45;;;;;;;12.78;75.84;102224.88;5040991;28;20026;-56
2022/06/12 02:23:27;;;;;;;10.70;3.83;;;;;;;12.86;76.15;102216.97;5041468;28;20068;-56
2022/06/12 02:25:55;;;;;;;13.45;3.65;;;;;;;12.90;75.98;102205.00;5041762;28;20079;-56
2022/06/12 02:28:26;;;;;;;11.25;3.50;;;;;;;12.88;75.87;102215.81;5037269;28;20481;-56
2022/06/12 02:30:57;;;;;;;12.88;3.95;;;;;;;12.73;75.81;102217.34;5040258;28;20059;-56
2022/06/12 02:33:34;;;;;;;9.27;3.53;;;;;;;12.68;76.12;102216.94;5038144;28;20025;-57
2022/06/12 02:36:22;;;;;;;13.00;3.70;;;;;;;12.55;76.35;102221.81;5037836;28;20037;-56
2022/06/12 02:38:52;;;;;;;12.32;3.83;;;;;;;12.55;76.83;102214.63;5046193;28;20041;-57
2022/06/12 02:41:26;;;;;;;15.00;4.05;;;;;;;12.50;77.09;102208.94;5045517;28;20033;-56
2022/06/12 02:43:58;;;;;;;15.77;3.90;;;;;;;12.44;76.86;102214.03;5037798;28;20040;-56
2022/06/12 02:46:33;;;;;;;9.23;3.63;;;;;;;12.43;77.20;102205.16;5041195;28;20092;-56
2022/06/12 02:48:59;;;;;;;11.25;3.75;;;;;;;12.39;76.83;102201.97;5044260;28;20129;-57
2022/06/12 02:51:38;;;;;;;12.65;3.63;;;;;;;12.45;77.48;102205.88;5045045;28;20616;-57
2022/06/12 02:54:09;;;;;;;14.48;4.20;;;;;;;12.37;77.43;102197.78;5043778;28;20032;-55
2022/06/12 02:56:43;;;;;;;19.17;4.13;;;;;;;12.47;77.36;102198.56;5044168;28;20400;-56
2022/06/12 02:59:46;;;;;;;14.25;4.22;;;;;;;12.57;77.50;102202.00;5040562;28;20041;-57
2022/06/12 03:02:33;;;;;;;15.77;4.15;;;;;;;12.62;77.88;102202.38;5039555;28;20090;-56
2022/06/12 03:05:19;;;;;;;11.55;4.00;;;;;;;12.60;77.68;102195.53;5039861;28;20765;-57
2022/06/12 03:07:45;;;;;;;17.45;4.03;;;;;;;12.50;77.34;102198.28;5037031;28;20090;-56
2022/06/12 03:10:16;;;;;;;17.35;4.35;;;;;;;12.50;77.56;102208.94;5036881;28;20021;-57
2022/06/12 03:12:42;;;;;;;11.77;4.00;;;;;;;12.46;77.43;102196.91;5038626;28;20029;-57
2022/06/12 03:15:26;;;;;;;12.15;3.90;;;;;;;12.45;77.88;102202.38;5035909;28;20044;-56
2022/06/12 03:17:51;;;;;;;13.18;4.05;;;;;;;12.42;77.76;102206.16;5040582;28;20104;-55
2022/06/12 03:20:18;;;;;;;11.07;4.25;;;;;;;12.36;77.85;102207.59;5042371;28;20167;-56
2022/06/12 03:22:56;;;;;;;11.70;4.20;;;;;;;12.35;77.73;102215.72;5043049;28;20562;-56
2022/06/12 03:25:35;;;;;;;21.42;5.10;;;;;;;12.33;78.33;102212.38;5038787;28;20031;-56
2022/06/12 03:28:11;;;;;;;12.60;3.95;;;;;;;12.33;78.01;102218.53;5042066;28;20596;-56
2022/06/12 03:31:23;;;;;;;14.90;4.35;;;;;;;12.35;78.31;102210.41;5040216;28;20028;-56
2022/06/12 03:34:10;;;;;;;14.00;4.55;;;;;;;12.35;78.28;102221.06;5028587;28;20043;-56
2022/06/12 03:36:47;;;;;;;14.25;5.10;;;;;;;12.32;78.64;102216.88;5035086;28;20036;-56
2022/06/12 03:39:45;;;;;;;15.73;4.43;;;;;;;12.30;78.75;102213.50;5036978;28;20424;-56
2022/06/12 03:42:25;;;;;;;15.38;4.95;;;;;;;12.28;78.96;102214.66;5033298;28;20029;-57
2022/06/12 03:45:06;;;;;;;13.48;4.63;;;;;;;12.25;78.78;102209.63;5037112;28;20041;-56
2022/06/12 03:47:51;;;;;;;10.98;4.40;;;;;;;12.26;79.36;102216.63;5035601;28;20032;-58
2022/06/12 03:50:26;;;;;;;16.10;5.20;;;;;;;12.22;79.01;102216.09;5040892;28;20492;-58
2022/06/12 03:52:54;;;;;;;13.95;4.88;;;;;;;12.26;79.03;102219.28;5039683;28;20025;-56
2022/06/12 03:58:19;;;;;;;17.60;4.85;;;;;;;12.20;79.42;102219.88;5035540;28;20087;-57
2022/06/12 04:00:47;;;;;;;13.65;5.25;;;;;;;12.19;79.53;102218.22;5034966;28;20033;-57
2022/06/12 04:03:23;;;;;;;12.90;4.82;;;;;;;12.19;79.32;102219.06;5041177;28;20029;-57
2022/06/12 04:05:59;;;;;;;19.33;5.32;;;;;;;12.22;79.56;102210.75;5042501;28;20025;-58
2022/06/12 04:08:32;;;;;;;15.35;4.40;;;;;;;12.20;79.57;102214.56;5038666;28;20020;-57
2022/06/12 04:10:58;;;;;;;11.02;4.40;;;;;;;12.21;79.73;102219.75;5032986;28;20503;-55
2022/06/12 04:13:24;;;;;;;13.25;4.90;;;;;;;12.23;80.00;102220.44;5038713;28;20053;-56
2022/06/12 04:15:55;;;;;;;17.27;4.68;;;;;;;12.24;79.57;102219.44;5040970;28;20431;-56
2022/06/12 04:18:22;;;;;;;13.73;4.40;;;;;;;12.25;79.64;102226.44;5041930;28;20425;-56
2022/06/12 04:20:54;;;;;;;11.65;4.43;;;;;;;12.27;79.54;102220.97;5040808;28;20021;-56
2022/06/12 04:23:43;;;;;;;14.63;4.68;;;;;;;12.31;79.60;102225.00;5037802;28;20037;-56
2022/06/12 04:26:18;;;;;;;19.45;4.35;;;;;;;12.32;79.73;102221.34;5036575;28;20610;-55
2022/06/12 04:28:45;;;;;;;17.27;5.07;;;;;;;12.35;79.43;102221.06;5038264;28;20037;-55
2022/06/12 04:31:15;;;;;;;11.68;4.80;;;;;;;12.35;79.71;102226.38;5040626;28;20044;-56
2022/06/12 04:33:57;;;;;;;17.65;4.93;;;;;;;12.38;79.76;102231.41;5035541;28;20048;-55
2022/06/12 04:36:22;;;;;;;14.90;4.63;;;;;;;12.39;79.61;102230.44;5037998;28;20021;-56
2022/06/12 04:38:48;;;;;;;15.27;5.15;;;;;;;12.40;79.50;102237.44;5038059;28;20028;-53
2022/06/12 04:41:23;;;;;;;15.32;5.25;;;;;;;12.43;79.67;102234.47;5033412;28;20047;-56
2022/06/12 04:43:49;;;;;;;13.90;4.90;;;;;;;12.45;79.97;102235.19;5036849;28;20108;-55
2022/06/12 04:46:14;;;;;;;13.98;5.18;;;;;;;12.47;79.78;102235.88;5041362;28;20151;-56
2022/06/12 04:48:42;;;;;;;16.05;4.90;;;;;;;12.49;79.85;102238.38;5037339;28;20032;-58
2022/06/12 04:51:09;;;;;;;13.65;4.63;;;;;;;12.50;79.70;102235.56;5037511;28;20029;-56
2022/06/12 04:53:35;;;;;;;14.52;5.20;;;;;;;12.52;79.44;102236.25;5039032;28;20071;-57
2022/06/12 04:56:00;;;;;;;18.50;5.47;;;;;;;12.57;80.05;102235.81;5039618;28;20065;-56
2022/06/12 04:58:27;;;;;;;16.55;5.78;;;;;;;12.58;79.73;102232.16;5035855;28;20032;-56
2022/06/12 05:00:52;;;;;;;15.13;5.45;;;;;;;12.62;79.80;102233.53;5037561;28;20033;-55
2022/06/12 05:03:18;;;;;;;16.50;5.63;;;;;;;12.68;79.67;102230.25;5042004;28;20040;-56
2022/06/12 05:05:43;;;;;;;13.45;5.57;;;;;;;12.72;79.86;102226.31;5045505;28;20025;-55
2022/06/12 05:08:09;;;;;;;16.45;5.47;;;;;;;12.78;79.86;102222.22;5040734;28;20033;-55
2022/06/12 05:10:35;;;;;;;16.35;5.80;;;;;;;12.83;79.24;102227.94;5039374;28;20032;-56
2022/06/12 05:13:01;;;;;;;17.92;6.53;;;;;;;12.89;79.21;102229.97;5033789;28;20076;-56
2022/06/12 05:15:27;;;;;;;15.73;5.60;;;;;;;12.90;79.42;102227.16;5031710;28;20108;-55
2022/06/12 05:17:52;;;;;;;20.15;5.50;;;;;;;12.95;79.14;102232.03;5031793;28;20261;-58
2022/06/12 05:20:24;;;;;;;14.63;5.72;;;;;;;13.01;78.88;102232.28;5034918;28;20312;-56
2022/06/12 05:22:50;;;;;;;15.98;6.03;;;;;;;13.07;79.04;102232.66;5039170;28;20035;-56
2022/06/12 05:25:17;;;;;;;16.02;5.97;;;;;;;13.14;79.12;102233.72;5042976;28;20417;-56
2022/06/12 05:27:46;;;;;;;15.07;6.03;;;;;;;13.17;79.02;102233.41;5039081;28;20602;-56
2022/06/12 05:30:14;;;;;;;19.00;5.72;;;;;;;13.22;78.77;102237.31;5040370;28;20052;-56
2022/06/12 05:32:40;;;;;;;18.80;6.20;;;;;;;13.28;78.96;102239.38;5038558;28;20029;-56
2022/06/12 05:35:07;;;;;;;20.70;5.97;;;;;;;13.31;79.19;102233.75;5039798;28;20051;-56
2022/06/12 05:37:33;;;;;;;16.02;5.93;;;;;;;13.35;79.15;102234.28;5040416;28;20025;-53
2022/06/12 05:39:58;;;;;;;18.67;6.10;;;;;;;13.42;79.03;102229.16;5039024;28;20037;-56
2022/06/12 05:42:23;;;;;;;22.38;6.35;;;;;;;13.45;79.59;102229.69;5037681;28;20021;-57
2022/06/12 05:44:49;;;;;;;18.70;6.40;;;;;;;13.52;79.77;102235.22;5037950;28;20039;-57
2022/06/12 05:47:14;;;;;;;19.70;6.40;;;;;;;13.55;79.70;102237.56;5040918;28;20397;-56
2022/06/12 05:49:39;;;;;;;19.55;7.40;;;;;;;13.60;79.66;102236.16;5044212;28;20059;-55
2022/06/12 05:52:05;;;;;;;21.35;7.90;;;;;;;13.67;80.05;102232.84;5043717;28;20029;-55
2022/06/12 05:54:30;;;;;;;21.83;7.10;;;;;;;13.71;79.91;102235.03;5044520;28;20042;-56
2022/06/12 05:56:56;;;;;;;27.35;6.93;;;;;;;13.76;80.11;102235.41;5037154;28;20026;-55
2022/06/12 05:59:22;;;;;;;23.77;7.40;;;;;;;13.82;80.38;102236.59;5041622;28;20025;-56
2022/06/12 06:01:47;;;;;;;27.50;7.90;;;;;;;13.86;80.39;102235.28;5046251;28;20031;-55
2022/06/12 06:04:12;;;;;;;24.40;7.82;;;;;;;13.95;80.80;102231.69;5036061;28;20044;-56
2022/06/12 06:06:43;;;;;;;25.73;8.23;;;;;;;14.01;80.95;102232.88;5035669;28;20029;-56
2022/06/12 06:09:09;;;;;;;24.67;7.38;;;;;;;14.03;80.28;102238.91;5038176;28;20037;-56
2022/06/12 06:11:34;;;;;;;24.05;7.38;;;;;;;14.06;80.43;102238.56;5037694;28;20408;-56
2022/06/12 06:14:00;;;;;;;25.23;7.57;;;;;;;14.09;80.58;102241.75;5040000;28;20063;-55
2022/06/12 06:16:25;;;;;;;22.67;7.93;;;;;;;14.14;80.36;102246.63;5044673;28;20473;-55
2022/06/12 06:18:54;;;;;;;24.98;7.78;;;;;;;14.18;80.43;102251.50;5036222;28;20030;-56
2022/06/12 06:21:19;;;;;;;26.17;8.20;;;;;;;14.22;80.54;102247.53;5039143;28;20033;-54
2022/06/12 06:23:44;;;;;;;21.38;8.30;;;;;;;14.31;80.53;102253.72;5042354;28;20032;-55
2022/06/12 06:26:10;;;;;;;23.13;8.07;;;;;;;14.39;80.68;102251.09;5041828;28;20481;-56
2022/06/12 06:28:37;;;;;;;24.63;7.93;;;;;;;14.49;80.75;102257.19;5041863;28;20064;-56
2022/06/12 06:31:03;;;;;;;28.52;8.38;;;;;;;14.60;80.63;102252.53;5043997;28;20033;-56
2022/06/12 06:33:28;;;;;;;20.17;7.03;;;;;;;14.70;80.07;102258.56;5043533;28;20484;-56
2022/06/12 06:35:54;;;;;;;25.88;8.05;;;;;;;14.73;79.74;102260.91;5043266;28;20040;-54
2022/06/12 06:38:19;;;;;;;24.92;7.70;;;;;;;14.79;79.89;102265.63;5043209;28;20041;-56
2022/06/12 06:40:46;;;;;;;19.60;7.70;;;;;;;14.82;79.86;102260.78;5044599;28;20029;-56
2022/06/12 06:43:11;;;;;;;21.23;7.82;;;;;;;14.86;79.69;102266.66;5046046;28;20050;-56
2022/06/12 06:48:23;;;;;;;24.55;7.68;;;;;;;14.91;79.33;102275.00;5046591;28;20064;-56
2022/06/12 06:50:49;;;;;;;31.05;9.32;;;;;;;14.94;79.64;102263.97;5046504;28;20036;-55
2022/06/12 06:53:15;;;;;;;24.38;8.75;;;;;;;14.99;79.96;102264.31;5047197;28;20025;-56
2022/06/12 06:55:42;;;;;;;25.40;8.18;;;;;;;14.98;79.58;102270.66;5048405;28;20029;-56
2022/06/12 06:58:10;;;;;;;21.98;8.20;;;;;;;15.02;79.98;102271.19;5044621;28;20053;-56
2022/06/12 07:00:38;;;;;;;22.38;7.97;;;;;;;15.03;79.96;102267.50;5047239;28;20094;-56
2022/06/12 07:03:03;;;;;;;25.38;9.00;;;;;;;14.99;79.40;102275.03;5048683;28;20025;-56
2022/06/12 07:05:32;;;;;;;27.88;9.05;;;;;;;15.03;79.15;102272.84;5048782;28;20044;-56
2022/06/12 07:07:58;;;;;;;22.77;8.10;;;;;;;15.12;79.74;102272.72;5046947;28;20017;-56
2022/06/12 07:10:25;;;;;;;20.75;8.00;;;;;;;15.26;79.83;102268.53;5054109;28;20031;-54
2022/06/12 07:12:51;;;;;;;27.30;8.32;;;;;;;15.36;79.47;102268.41;5048841;28;20028;-56
2022/06/12 07:15:18;;;;;;;28.23;8.52;;;;;;;15.50;79.16;102265.03;5048132;28;20039;-56
2022/06/12 07:17:43;;;;;;;24.95;8.07;;;;;;;15.64;79.56;102269.75;5050522;28;20195;-58
2022/06/12 07:20:13;;;;;;;24.25;7.90;;;;;;;15.79;79.46;102267.22;5049103;28;20606;-56
2022/06/12 07:22:39;;;;;;;18.05;5.82;;;;;;;16.00;78.75;102275.53;5052645;28;20083;-56
2022/06/12 07:25:06;;;;;;;23.35;5.55;;;;;;;16.18;78.10;102279.84;5055447;28;20723;-57
2022/06/12 07:27:32;;;;;;;21.77;5.93;;;;;;;16.33;77.61;102270.91;5047416;28;20025;-56
2022/06/12 07:29:58;;;;;;;25.80;7.53;;;;;;;16.40;76.78;102271.88;5049382;28;20020;-57
2022/06/12 07:32:24;;;;;;;29.90;8.40;;;;;;;16.45;75.80;102271.38;5048165;28;20021;-56
2022/06/12 07:34:50;;;;;;;28.35;10.02;;;;;;;16.52;75.98;102275.03;5048765;28;20048;-56
2022/06/12 07:37:15;;;;;;;17.15;5.50;;;;;;;16.62;75.55;102280.19;5051498;28;20666;-56
2022/06/12 07:39:40;;;;;;;21.45;5.22;;;;;;;16.69;74.88;102273.13;5056441;28;20024;-56
2022/06/12 07:42:06;;;;;;;22.35;5.55;;;;;;;16.76;74.73;102279.47;5043366;28;20053;-55
2022/06/12 07:44:34;;;;;;;22.15;5.63;;;;;;;16.75;74.02;102283.16;5046317;28;20021;-56
2022/06/12 07:47:00;;;;;;;21.30;4.82;;;;;;;16.79;73.83;102278.31;5046651;28;20035;-57
2022/06/12 07:49:28;;;;;;;17.48;4.18;;;;;;;16.86;73.25;102285.47;5048670;28;20021;-56
2022/06/12 07:51:55;;;;;;;19.27;4.20;;;;;;;16.93;72.16;102286.41;5047871;28;20035;-56
2022/06/12 07:54:21;;;;;;;17.15;4.80;;;;;;;17.02;72.40;102282.66;5050062;28;20133;-56
2022/06/12 07:56:46;;;;;;;20.58;5.07;;;;;;;17.08;71.92;102288.34;5047510;28;20540;-55
2022/06/12 07:59:12;;;;;;;22.90;4.97;;;;;;;17.09;71.61;102287.34;5046585;28;20028;-56
2022/06/12 08:01:38;;;;;;;22.85;5.35;;;;;;;17.11;71.64;102283.47;5045935;28;20021;-55
2022/06/12 08:04:06;;;;;;;19.27;4.95;;;;;;;17.19;71.87;102291.44;5053578;28;20024;-57
2022/06/12 08:06:31;;;;;;;19.30;5.00;;;;;;;17.22;71.36;102288.41;5047472;28;20041;-56
2022/06/12 08:08:57;;;;;;;23.63;5.15;;;;;;;17.21;71.31;102283.22;5051997;28;20472;-57
2022/06/12 08:11:24;;;;;;;19.92;5.47;;;;;;;17.17;70.95;102282.75;5047451;28;20027;-57
2022/06/12 08:13:50;;;;;;;19.05;5.00;;;;;;;17.14;71.04;102276.91;5048498;28;20393;-56
2022/06/12 08:16:16;;;;;;;23.35;5.45;;;;;;;17.23;71.03;102275.81;5049533;28;20105;-57
2022/06/12 08:18:42;;;;;;;23.17;5.53;;;;;;;17.31;71.28;102281.94;5055947;28;20033;-55
2022/06/12 08:21:10;;;;;;;22.13;5.18;;;;;;;17.36;70.94;102278.75;5046223;28;20033;-56
2022/06/12 08:23:56;;;;;;;18.48;5.70;;;;;;;17.45;71.13;102272.28;5047242;28;20017;-56
2022/06/12 08:26:31;;;;;;;25.55;5.50;;;;;;;17.53;71.15;102272.22;5048110;28;20082;-55
2022/06/12 08:29:00;;;;;;;22.23;5.20;;;;;;;17.58;70.53;102274.34;5055603;28;20501;-55
2022/06/12 08:31:30;;;;;;;19.85;5.13;;;;;;;17.74;70.93;102268.03;5047975;28;20399;-56
2022/06/12 08:34:00;;;;;;;21.55;4.95;;;;;;;17.85;70.81;102271.09;5046217;28;20092;-56
2022/06/12 08:36:26;;;;;;;20.20;5.22;;;;;;;17.88;70.29;102269.88;5047030;28;20083;-56
2022/06/12 08:38:51;;;;;;;21.75;5.20;;;;;;;17.89;69.63;102274.25;5043756;28;20027;-53
2022/06/12 08:41:42;;;;;;;18.27;4.78;;;;;;;17.96;69.79;102269.81;5054758;28;20059;-57
2022/06/12 08:44:19;;;;;;;17.52;4.43;;;;;;;18.06;68.97;102278.44;5047732;28;20032;-55
2022/06/12 08:46:54;;;;;;;22.02;4.82;;;;;;;18.18;68.75;102266.19;5044988;28;20052;-54
2022/06/12 08:49:43;;;;;;;14.25;3.78;;;;;;;18.23;67.46;102266.50;5043956;28;20024;-57
2022/06/12 08:52:12;;;;;;;18.90;4.15;;;;;;;18.24;66.97;102264.66;5046880;28;20033;-56
2022/06/12 08:54:47;;;;;;;17.87;3.90;;;;;;;18.25;66.36;102259.06;5056226;28;20027;-56
2022/06/12 08:57:18;;;;;;;16.85;4.05;;;;;;;18.30;66.36;102255.00;5046302;28;20029;-54
2022/06/12 08:59:51;;;;;;;15.60;4.85;;;;;;;18.31;66.32;102245.91;5044748;28;20021;-55
2022/06/12 09:02:30;;;;;;;15.50;4.72;;;;;;;18.36;66.23;102247.00;5044240;28;20021;-55
2022/06/12 09:04:55;;;;;;;16.27;4.30;;;;;;;18.45;66.30;102245.84;5050320;28;20025;-56
2022/06/12 09:07:38;;;;;;;14.98;4.18;;;;;;;18.52;65.62;102248.66;5044633;28;20124;-56
2022/06/12 09:10:17;;;;;;;15.73;4.43;;;;;;;18.63;65.09;102250.88;5043670;28;20025;-55
2022/06/12 09:12:53;;;;;;;16.95;4.65;;;;;;;18.71;64.91;102245.38;5042553;28;20134;-55
2022/06/12 09:15:31;;;;;;;14.95;3.42;;;;;;;18.73;63.69;102259.47;5044081;28;20447;-56
2022/06/12 09:18:05;;;;;;;15.30;3.83;;;;;;;18.77;63.21;102259.94;5042324;28;20033;-56
2022/06/12 09:20:41;;;;;;;16.83;3.92;;;;;;;18.75;62.82;102254.72;5047984;28;20025;-57
2022/06/12 09:23:27;;;;;;;13.82;3.80;;;;;;;18.76;62.82;102251.00;5048409;28;20032;-56
2022/06/12 09:26:30;;;;;;;13.80;3.53;;;;;;;18.82;61.88;102250.28;5049894;28;20468;-53
2022/06/12 09:29:12;;;;;;;14.75;3.90;;;;;;;18.80;61.28;102249.63;5048761;28;20152;-56
2022/06/12 09:31:59;;;;;;;12.25;3.70;;;;;;;18.88;61.66;102254.91;5051244;28;20024;-56
2022/06/12 09:34:44;;;;;;;13.05;3.45;;;;;;;18.98;62.65;102251.88;5050073;28;20051;-56
2022/06/12 09:40:31;;;;;;;12.40;3.08;;;;;;;19.07;60.25;102255.28;5047742;28;20039;-56
2022/06/12 09:43:07;;;;;;;10.30;3.05;;;;;;;19.06;59.74;102257.13;5050110;28;20397;-55
2022/06/12 09:45:43;;;;;;;12.35;3.63;;;;;;;19.05;60.02;102255.47;5049729;28;20029;-57
2022/06/12 09:48:20;;;;;;;12.98;3.00;;;;;;;19.20;59.32;102252.72;5047950;28;20090;-56
2022/06/12 09:51:14;;;;;;;12.57;3.22;;;;;;;19.37;59.44;102248.75;5046285;28;20550;-55
2022/06/12 09:54:05;;;;;;;10.88;3.47;;;;;;;19.50;59.69;102250.69;5049705;28;20021;-56
2022/06/12 09:56:33;;;;;;;12.60;3.10;;;;;;;19.41;58.80;102241.94;5050993;28;20074;-55
2022/06/12 09:59:19;;;;;;;9.65;3.10;;;;;;;19.55;59.93;102252.84;5048921;28;20535;-58
2022/06/12 10:01:47;;;;;;;14.68;3.88;;;;;;;19.59;59.49;102246.03;5046989;28;20621;-55
2022/06/12 10:04:23;;;;;;;13.57;3.45;;;;;;;19.57;58.67;102250.78;5047927;28;20024;-57
2022/06/12 10:06:55;;;;;;;10.05;2.95;;;;;;;19.61;58.80;102246.66;5047613;28;20082;-56
2022/06/12 10:09:20;;;;;;;14.15;3.58;;;;;;;19.67;58.51;102238.66;5050183;28;20017;-54
2022/06/12 10:11:55;;;;;;;9.63;3.27;;;;;;;19.76;58.97;102239.31;5050001;28;20029;-56
2022/06/12 10:14:23;;;;;;;12.55;2.90;;;;;;;19.82;58.77;102241.22;5046902;28;20731;-56
2022/06/12 10:17:03;;;;;;;8.57;3.15;;;;;;;19.90;58.32;102242.91;5048426;28;20025;-57
2022/06/12 10:19:32;;;;;;;9.50;2.72;;;;;;;19.77;57.40;102241.00;5048787;28;20169;-56
2022/06/12 10:22:03;;;;;;;11.27;3.00;;;;;;;19.74;57.67;102244.91;5049319;28;20036;-56
2022/06/12 10:24:28;;;;;;;11.93;3.28;;;;;;;19.75;56.33;102243.06;5049083;28;20027;-56
2022/06/12 10:26:58;;;;;;;9.65;2.97;;;;;;;19.83;56.13;102242.06;5047896;28;20100;-56
2022/06/12 10:29:24;;;;;;;11.05;2.70;;;;;;;20.00;56.64;102241.56;5047857;28;20032;-56
2022/06/12 10:31:58;;;;;;;14.98;3.03;;;;;;;20.27;57.31;102242.53;5056896;28;20032;-57
2022/06/12 10:34:28;;;;;;;12.35;2.95;;;;;;;20.32;56.21;102237.34;5047670;28;20029;-56
2022/06/12 10:36:56;;;;;;;12.65;3.05;;;;;;;20.28;56.16;102233.41;5048931;28;20121;-56
2022/06/12 10:39:25;;;;;;;11.20;3.33;;;;;;;20.34;56.39;102232.59;5047628;28;20028;-56
2022/06/12 10:42:00;;;;;;;12.10;2.75;;;;;;;20.45;56.58;102224.97;5049824;28;20032;-55
2022/06/12 10:44:37;;;;;;;12.23;3.10;;;;;;;20.50;55.71;102223.31;5048610;28;20044;-57
2022/06/12 10:47:22;;;;;;;11.82;3.20;;;;;;;20.67;56.23;102226.50;5052147;28;20028;-56
2022/06/12 10:50:06;;;;;;;13.82;3.30;;;;;;;20.66;56.13;102222.97;5042456;28;20025;-56
2022/06/12 10:52:33;;;;;;;11.50;2.90;;;;;;;20.55;56.08;102218.19;5048183;28;20094;-56
2022/06/12 10:55:00;;;;;;;10.82;3.53;;;;;;;20.48;56.01;102219.16;5056668;28;20047;-55
2022/06/12 10:58:07;;;;;;;13.07;3.85;;;;;;;20.49;55.96;102220.81;5055592;28;20504;-56
2022/06/12 11:00:38;;;;;;;12.00;3.03;;;;;;;20.39;54.87;102229.28;5052104;28;20047;-56
2022/06/12 11:03:33;;;;;;;14.20;3.15;;;;;;;20.27;54.35;102218.25;5048027;28;20105;-56
2022/06/12 11:06:09;;;;;;;14.23;2.90;;;;;;;20.11;54.60;102227.50;5043067;28;20037;-56
2022/06/12 11:08:59;;;;;;;12.10;3.15;;;;;;;19.92;55.65;102227.38;5045917;28;20059;-55
2022/06/12 11:11:37;;;;;;;13.35;3.17;;;;;;;19.78;55.68;102227.31;5047383;28;21284;-56
2022/06/12 11:14:28;;;;;;;12.40;3.15;;;;;;;19.82;56.39;102222.34;5048957;28;20020;-55
2022/06/12 11:17:21;;;;;;;14.13;2.95;;;;;;;19.77;56.56;102222.94;5046725;28;20029;-57
2022/06/12 11:20:13;;;;;;;13.93;3.42;;;;;;;19.75;57.07;102213.41;5046971;28;20104;-54
2022/06/12 11:23:10;;;;;;;12.25;3.30;;;;;;;19.80;57.30;102214.47;5047595;28;20124;-56
2022/06/12 11:25:54;;;;;;;12.25;3.05;;;;;;;19.77;56.80;102219.41;5051013;28;20025;-56
2022/06/12 11:28:38;;;;;;;9.18;2.88;;;;;;;19.77;56.90;102217.56;5046551;28;20059;-56
2022/06/12 11:31:15;;;;;;;9.43;2.90;;;;;;;19.74;57.00;102220.66;5047957;28;20087;-56
2022/06/12 11:34:02;;;;;;;13.80;3.05;;;;;;;19.92;56.93;102209.34;5046241;28;20031;-56
2022/06/12 11:37:05;;;;;;;11.18;2.63;;;;;;;20.19;57.67;102209.47;5051065;28;20023;-59
2022/06/12 11:39:47;;;;;;;9.98;2.63;;;;;;;20.32;56.15;102212.25;5049394;28;20021;-56
2022/06/12 11:42:21;;;;;;;10.55;2.67;;;;;;;20.53;56.45;102211.28;5047917;28;20045;-58
2022/06/12 11:45:04;;;;;;;12.63;3.03;;;;;;;20.61;55.44;102201.16;5047683;28;20100;-56
2022/06/12 11:48:17;;;;;;;8.48;2.58;;;;;;;20.81;55.16;102192.25;5051093;28;20044;-57
2022/06/12 11:51:05;;;;;;;11.77;3.13;;;;;;;20.87;54.61;102199.56;5044244;28;20496;-57
2022/06/12 11:53:40;;;;;;;;;;;;;;;20.97;54.27;102198.09;5053933;28;20083;-57
2022/06/12 11:56:36;;;;;;;9.65;2.80;;;;;;;20.77;54.24;102196.41;5044087;28;19912;-56
2022/06/12 11:59:38;;;;;;;7.25;2.40;;;;;;;20.60;54.14;102196.81;5051640;28;20385;-57
2022/06/12 12:02:18;;;;;;;8.60;2.60;;;;;;;20.51;54.12;102195.31;5042179;28;20096;-56